createdAt,value
2019-04-29T00:02:27.286Z,99494.44
2019-04-29T00:04:56.702Z,99499.89
2019-04-29T00:07:26.153Z,99495.48
2019-04-29T00:09:55.558Z,99493.82
2019-04-29T00:12:24.960Z,99482.53
2019-04-29T00:15:15.153Z,99487.28
2019-04-29T00:17:50.929Z,99484.67
2019-04-29T00:20:39.213Z,99477.36
2019-04-29T00:23:08.693Z,99482.84
2019-04-29T00:25:38.149Z,99480.94
2019-04-29T00:28:07.691Z,99481.00
2019-04-29T00:30:37.130Z,99481.15
2019-04-29T00:33:06.542Z,99476.63
2019-04-29T00:35:36.147Z,99478.25
2019-04-29T00:38:24.429Z,99476.31
2019-04-29T00:41:11.614Z,99474.73
2019-04-29T00:43:45.785Z,99481.41
2019-04-29T00:46:15.331Z,99479.37
2019-04-29T00:48:44.744Z,99479.80
2019-04-29T00:51:14.157Z,99482.57
2019-04-29T00:53:44.046Z,99486.33
2019-04-29T00:56:13.484Z,99493.66
2019-04-29T00:58:42.909Z,99502.62
2019-04-29T01:01:15.868Z,99499.05
2019-04-29T01:03:45.295Z,99497.19
2019-04-29T05:36:28.880Z,99543.58
2019-04-29T05:39:17.172Z,99540.60
2019-04-29T05:41:46.583Z,99545.38
2019-04-29T05:44:34.033Z,99544.31
2019-04-29T05:47:25.431Z,99538.72
2019-04-29T05:50:16.792Z,99542.04
2019-04-29T05:53:11.450Z,99541.13
2019-04-29T05:55:39.538Z,99535.17
2019-04-29T05:58:11.788Z,99527.50
2019-04-29T06:00:43.036Z,99520.94
2019-04-29T06:03:12.464Z,99526.20
2019-04-29T06:05:41.893Z,99523.87
2019-04-29T06:08:11.336Z,99519.70
2019-04-29T06:10:42.119Z,99509.92
2019-04-29T06:13:11.695Z,99518.69
2019-04-29T06:15:41.101Z,99510.03
2019-04-29T06:18:10.509Z,99508.42
2019-04-29T06:20:39.915Z,99516.83
2019-04-29T06:23:09.356Z,99514.25
2019-04-29T06:25:38.774Z,99517.12
2019-04-29T06:28:08.195Z,99514.25
2019-04-29T06:30:40.566Z,99510.76
2019-04-29T06:33:09.188Z,99505.33
2019-04-29T06:35:38.612Z,99498.35
2019-04-29T06:38:08.112Z,99491.59
2019-04-29T06:40:37.534Z,99497.48
2019-04-29T06:43:07.015Z,99497.98
2019-04-29T06:45:36.454Z,99495.80
2019-04-29T06:48:05.890Z,99500.01
2019-04-29T06:50:35.317Z,99505.25
2019-04-29T06:53:05.037Z,99504.99
2019-04-29T06:55:34.468Z,99507.90
2019-04-29T06:58:03.878Z,99505.09
2019-04-29T07:00:33.312Z,99509.09
2019-04-29T07:03:02.739Z,99502.26
2019-04-29T07:05:32.301Z,99500.64
2019-04-29T07:08:01.773Z,99503.05
2019-04-29T07:10:31.315Z,99499.06
2019-04-29T07:13:00.746Z,99504.16
2019-04-29T07:15:30.184Z,99503.03
2019-04-29T07:17:59.589Z,99497.03
2019-04-29T07:20:32.369Z,99498.80
2019-04-29T07:23:00.747Z,99495.33
2019-04-29T07:25:31.397Z,99497.42
2019-04-29T07:28:00.846Z,99493.91
2019-04-29T07:30:30.276Z,99502.34
2019-04-29T07:32:59.705Z,99498.87
2019-04-29T07:35:29.141Z,99499.44
2019-04-29T07:37:58.595Z,99498.44
2019-04-29T07:40:28.031Z,99501.06
2019-04-29T07:42:57.463Z,99501.72
2019-04-29T07:45:58.888Z,99497.42
2019-04-29T07:48:26.103Z,99500.20
2019-04-29T07:50:59.504Z,99497.45
2019-04-29T07:53:34.496Z,99488.66
2019-04-29T07:56:01.731Z,99491.92
2019-04-29T07:58:28.982Z,99489.45
2019-04-29T08:00:58.410Z,99488.34
2019-04-29T08:03:27.824Z,99484.64
2019-04-29T08:05:57.227Z,99488.18
2019-04-29T08:08:26.685Z,99489.19
2019-04-29T08:10:56.819Z,99487.81
2019-04-29T08:13:26.960Z,99490.06
2019-04-29T08:15:56.401Z,99484.88
2019-04-29T08:18:25.844Z,99480.25
2019-04-29T08:20:55.290Z,99479.52
2019-04-29T08:23:24.701Z,99471.58
2019-04-29T08:25:57.463Z,99470.45
2019-04-29T08:28:25.263Z,99472.09
2019-04-29T08:30:54.728Z,99471.61
2019-04-29T08:33:24.139Z,99458.98
2019-04-29T08:35:53.570Z,99458.45
2019-04-29T08:38:22.993Z,99461.41
2019-04-29T08:40:52.420Z,99461.92
2019-04-29T08:43:35.068Z,99460.00
2019-04-29T08:46:10.688Z,99465.00
2019-04-29T08:48:40.121Z,99459.51
2019-04-29T08:51:09.582Z,99458.95
2019-04-29T08:53:38.995Z,99446.01
2019-04-29T08:56:10.335Z,99445.77
2019-04-29T08:58:39.755Z,99444.12
2019-04-29T09:01:10.794Z,99441.11
2019-04-29T09:03:41.013Z,99432.06
2019-04-29T09:06:10.610Z,99427.67
2019-04-29T09:08:54.015Z,99420.75
2019-04-29T09:11:13.096Z,99418.48
2019-04-29T09:13:42.360Z,99415.19
2019-04-29T09:16:11.788Z,99409.64
2019-04-29T09:18:41.259Z,99411.61
2019-04-29T09:21:10.678Z,99396.22
2019-04-29T09:23:40.117Z,99394.33
2019-04-29T09:26:24.235Z,99388.03
2019-04-29T09:28:53.529Z,99386.27
2019-04-29T09:31:22.974Z,99383.02
2019-04-29T09:34:06.012Z,99384.16
2019-04-29T09:36:23.531Z,99376.73
2019-04-29T09:38:52.961Z,99373.34
2019-04-29T09:41:35.073Z,99370.00
2019-04-29T09:44:25.569Z,99363.91
2019-04-29T09:46:54.998Z,99353.06
2019-04-29T09:49:24.436Z,99351.54
2019-04-29T09:51:53.842Z,99349.73
2019-04-29T09:54:23.303Z,99339.75
2019-04-29T09:56:52.721Z,99334.97
2019-04-29T09:59:24.335Z,99330.30
2019-04-29T10:02:02.323Z,99327.28
2019-04-29T10:04:40.556Z,99325.58
2019-04-29T10:07:10.245Z,99316.52
2019-04-29T10:09:39.676Z,99317.19
2019-04-29T10:12:09.082Z,99314.26
2019-04-29T10:14:38.516Z,99310.59
2019-04-29T10:17:24.566Z,99312.64
2019-04-29T10:20:10.500Z,99310.97
2019-04-29T10:22:40.008Z,99307.12
2019-04-29T10:25:09.443Z,99302.42
2019-04-29T10:27:38.883Z,99307.22
2019-04-29T10:30:08.446Z,99296.38
2019-04-29T10:32:42.251Z,99304.09
2019-04-29T10:35:10.731Z,99295.28
2019-04-29T10:37:40.320Z,99297.20
2019-04-29T10:40:21.130Z,99289.95
2019-04-29T10:43:16.825Z,99284.28
2019-04-29T10:46:07.459Z,99282.56
2019-04-29T10:48:48.947Z,99272.53
2019-04-29T10:51:18.352Z,99274.02
2019-04-29T10:53:50.941Z,99279.09
2019-04-29T10:56:19.519Z,99277.78
2019-04-29T10:58:48.997Z,99272.75
2019-04-29T11:02:14.074Z,99263.56
2019-04-29T11:04:41.258Z,99263.19
2019-04-29T11:07:26.444Z,99255.37
2019-04-29T11:09:57.619Z,99250.65
2019-04-29T11:12:27.025Z,99242.41
2019-04-29T11:14:56.473Z,99248.05
2019-04-29T11:17:27.594Z,99232.33
2019-04-29T11:19:57.083Z,99232.33
2019-04-29T11:22:33.879Z,99230.63
2019-04-29T11:25:19.567Z,99229.67
2019-04-29T11:27:51.926Z,99226.98
2019-04-29T11:30:24.605Z,99224.45
2019-04-29T11:33:07.666Z,99218.69
2019-04-29T11:35:41.785Z,99214.94
2019-04-29T11:38:12.035Z,99211.98
2019-04-29T11:40:44.001Z,99213.39
2019-04-29T11:43:15.592Z,99209.23
2019-04-29T11:45:46.208Z,99196.84
2019-04-29T11:48:15.707Z,99202.05
2019-04-29T11:50:55.983Z,99191.35
2019-04-29T11:53:25.421Z,99190.45
2019-04-29T11:55:57.153Z,99185.20
2019-04-29T11:58:44.862Z,99186.11
2019-04-29T12:01:37.345Z,99185.48
2019-04-29T12:03:56.538Z,99170.51
2019-04-29T12:06:26.388Z,99166.31
2019-04-29T12:08:56.686Z,99168.56
2019-04-29T12:11:28.615Z,99160.80
2019-04-29T12:14:16.878Z,99158.61
2019-04-29T12:16:49.817Z,99159.41
2019-04-29T12:19:25.392Z,99149.19
2019-04-29T12:21:55.669Z,99154.03
2019-04-29T12:24:25.231Z,99146.67
2019-04-29T12:26:54.825Z,99148.00
2019-04-29T12:29:24.496Z,99139.23
2019-04-29T12:32:12.841Z,99134.59
2019-04-29T12:35:01.127Z,99132.36
2019-04-29T12:38:05.830Z,99121.98
2019-04-29T12:40:55.217Z,99115.80
2019-04-29T12:43:48.661Z,99120.88
2019-04-29T12:46:37.798Z,99115.94
2019-04-29T12:49:08.635Z,99111.88
2019-04-29T12:51:38.612Z,99105.14
2019-04-29T12:54:08.250Z,99099.80
2019-04-29T12:56:43.110Z,99093.98
2019-04-29T12:59:11.199Z,99086.69
2019-04-29T13:02:14.672Z,99089.42
2019-04-29T13:05:21.357Z,99081.99
2019-04-29T13:08:12.779Z,99085.32
2019-04-29T13:11:02.736Z,99076.56
2019-04-29T13:13:32.165Z,99065.40
2019-04-29T13:16:23.493Z,99057.56
2019-04-29T13:19:12.268Z,99068.50
2019-04-29T13:21:39.416Z,99059.45
2019-04-29T13:24:22.033Z,99050.77
2019-04-29T13:26:42.888Z,99050.16
2019-04-29T13:29:25.850Z,99041.93
2019-04-29T13:31:42.664Z,99044.21
2019-04-29T13:34:24.016Z,99037.89
2019-04-29T13:36:57.461Z,99037.89
2019-04-29T13:39:17.775Z,99042.51
2019-04-29T13:41:57.137Z,99046.36
2019-04-29T13:44:19.726Z,99041.78
2019-04-29T13:46:59.482Z,99038.82
2019-04-29T13:49:49.435Z,99032.83
2019-04-29T13:52:19.471Z,99033.61
2019-04-29T13:54:48.972Z,99030.75
2019-04-29T13:57:18.506Z,99028.78
2019-04-29T13:59:59.271Z,99020.78
2019-04-29T14:02:36.749Z,99019.73
2019-04-29T14:05:08.223Z,99009.47
2019-04-29T14:07:39.492Z,99007.74
2019-04-29T14:10:10.316Z,99009.86
2019-04-29T14:15:11.438Z,98998.99
2019-04-29T14:17:41.022Z,99000.12
2019-04-29T14:18:53.484Z,98998.28
2019-04-29T14:20:15.449Z,98987.72
2019-04-29T14:22:41.793Z,98996.66
2019-04-29T14:25:13.424Z,99002.80
2019-04-29T14:27:42.384Z,99001.50
2019-04-29T14:30:14.529Z,98999.70
2019-04-29T14:32:46.885Z,99003.81
2019-04-29T14:35:21.345Z,99004.58
2019-04-29T14:37:55.293Z,99006.12
2019-04-29T14:40:22.032Z,99003.25
2019-04-29T14:43:28.764Z,98998.52
2019-04-29T14:46:15.940Z,98993.86
2019-04-29T14:48:55.374Z,98995.80
2019-04-29T14:51:28.453Z,99001.43
2019-04-29T14:53:57.125Z,98997.02
2019-04-29T14:56:27.216Z,98998.16
2019-04-29T14:59:06.492Z,99000.79
2019-04-29T15:01:51.020Z,99004.29
2019-04-29T15:04:23.539Z,99001.42
2019-04-29T15:06:53.035Z,98998.02
2019-04-29T15:09:22.469Z,98992.38
2019-04-29T15:12:06.930Z,98987.02
2019-04-29T15:14:59.221Z,98985.38
2019-04-29T15:18:00.633Z,98985.57
2019-04-29T15:20:46.940Z,98982.95
2019-04-29T15:23:28.034Z,98994.05
2019-04-29T15:25:47.553Z,98992.88
2019-04-29T15:28:18.916Z,98983.64
2019-04-29T15:30:48.153Z,98988.62
2019-04-29T15:33:17.665Z,98990.30
2019-04-29T15:35:47.100Z,98993.14
2019-04-29T15:38:16.511Z,98991.00
2019-04-29T15:40:45.978Z,99000.02
2019-04-29T15:43:17.828Z,98993.74
2019-04-29T15:45:46.586Z,98994.59
2019-04-29T15:48:16.121Z,98985.34
2019-04-29T15:50:45.571Z,98984.90
2019-04-29T15:53:15.005Z,98985.73
2019-04-29T15:55:44.425Z,98981.16
2019-04-29T15:58:13.872Z,98989.16
2019-04-29T16:00:43.481Z,98986.23
2019-04-29T16:03:17.588Z,98986.86
2019-04-29T16:06:11.046Z,98983.39
2019-04-29T16:08:32.451Z,98972.33
2019-04-29T16:11:19.596Z,98976.94
2019-04-29T16:14:07.984Z,98971.30
2019-04-29T16:16:20.329Z,98972.23
2019-04-29T16:18:49.741Z,98982.16
2019-04-29T16:21:19.175Z,98979.19
2019-04-29T16:23:48.619Z,98987.14
2019-04-29T16:26:18.069Z,98988.78
2019-04-29T16:28:47.487Z,98988.81
2019-04-29T16:31:16.971Z,98983.38
2019-04-29T16:33:47.314Z,98986.66
2019-04-29T16:36:17.599Z,98983.12
2019-04-29T16:38:51.355Z,98971.36
2019-04-29T16:41:35.972Z,98981.23
2019-04-29T16:44:06.740Z,98975.80
2019-04-29T16:46:37.920Z,98977.17
2019-04-29T16:49:07.611Z,98975.52
2019-04-29T16:51:37.157Z,98978.78
2019-04-29T16:54:06.616Z,98976.31
2019-04-29T16:56:36.144Z,98977.95
2019-04-29T16:59:09.091Z,98975.77
2019-04-29T17:01:36.728Z,98977.36
2019-04-29T17:04:06.227Z,98981.19
2019-04-29T17:06:40.903Z,98982.45
2019-04-29T17:09:25.088Z,98989.25
2019-04-29T17:11:57.985Z,98982.13
2019-04-29T17:14:27.191Z,98981.23
2019-04-29T17:16:56.724Z,98984.14
2019-04-29T17:19:26.158Z,98987.14
2019-04-29T17:22:23.778Z,98986.53
2019-04-29T17:24:26.870Z,98980.73
2019-04-29T17:27:14.306Z,98979.78
2019-04-29T17:30:09.276Z,98984.86
2019-04-29T17:33:04.539Z,98985.55
2019-04-29T17:35:36.273Z,98990.03
2019-04-29T17:38:05.719Z,98994.27
2019-04-29T17:40:35.217Z,99000.41
2019-04-29T17:43:22.437Z,99000.52
2019-04-29T17:46:00.414Z,99002.31
2019-04-29T17:48:53.236Z,99011.11
2019-04-29T17:51:24.804Z,99018.33
2019-04-29T17:53:57.961Z,99013.47
2019-04-29T17:56:36.219Z,99013.05
2019-04-29T17:59:40.790Z,99014.85
2019-04-29T18:02:28.021Z,99022.30
2019-04-29T18:05:07.516Z,99022.34
2019-04-29T18:07:51.334Z,99020.77
2019-04-29T18:10:32.380Z,99020.06
2019-04-29T18:13:04.254Z,99023.14
2019-04-29T18:15:51.648Z,99028.36
2019-04-29T18:18:12.364Z,99026.52
2019-04-29T18:21:06.858Z,99031.89
2019-04-29T18:24:00.984Z,99032.87
2019-04-29T18:26:35.867Z,99029.72
2019-04-29T18:29:07.793Z,99007.84
2019-04-29T18:31:36.706Z,99026.09
2019-04-29T18:34:06.142Z,99020.33
2019-04-29T18:36:35.626Z,99022.88
2019-04-29T18:39:07.294Z,99025.22
2019-04-29T18:41:36.716Z,99024.30
2019-04-29T18:44:07.217Z,99018.16
2019-04-29T18:46:36.721Z,99022.05
2019-04-29T18:49:07.196Z,99024.59
2019-04-29T18:51:36.710Z,99026.02
2019-04-29T18:54:06.287Z,99024.51
2019-04-29T18:56:36.329Z,99029.78
2019-04-29T18:59:06.837Z,99028.52
2019-04-29T19:01:36.280Z,99026.14
2019-04-29T19:04:25.467Z,99028.23
2019-04-29T19:06:59.121Z,99030.02
2019-04-29T19:09:32.150Z,99025.21
2019-04-29T19:12:00.010Z,99030.39
2019-04-29T19:14:29.456Z,99020.50
2019-04-29T19:17:01.246Z,99014.17
2019-04-29T19:19:30.769Z,99011.95
2019-04-29T19:22:07.670Z,99016.94
2019-04-29T19:24:36.356Z,99019.02
2019-04-29T19:27:06.541Z,99019.89
2019-04-29T19:29:38.745Z,99013.56
2019-04-29T19:32:05.982Z,99021.52
2019-04-29T19:34:42.860Z,99017.27
2019-04-29T19:37:06.564Z,99016.06
2019-04-29T19:39:35.983Z,99015.46
2019-04-29T19:42:05.722Z,99018.66
2019-04-29T19:44:36.741Z,99022.27
2019-04-29T19:47:06.446Z,99018.39
2019-04-29T19:49:36.067Z,99018.81
2019-04-29T19:52:05.462Z,99022.57
2019-04-29T19:54:34.911Z,99013.02
2019-04-29T19:57:07.418Z,99016.02
2019-04-29T19:59:36.764Z,99025.46
2019-04-29T20:02:10.118Z,99021.39
2019-04-29T20:04:59.676Z,99019.26
2019-04-29T20:07:30.189Z,99024.68
2019-04-29T20:10:05.248Z,99032.80
2019-04-29T20:12:31.286Z,99042.52
2019-04-29T20:15:02.294Z,99038.10
2019-04-29T20:17:53.220Z,99050.14
2019-04-29T20:20:36.918Z,99044.74
2019-04-29T20:23:05.960Z,99046.63
2019-04-29T20:25:38.283Z,99058.28
2019-04-29T20:28:12.703Z,99051.67
2019-04-29T20:30:37.993Z,99056.39
2019-04-29T20:33:11.391Z,99050.90
2019-04-29T20:35:40.335Z,99047.71
2019-04-29T20:38:09.967Z,99046.36
2019-04-29T20:40:43.041Z,99050.39
2019-04-29T20:43:10.782Z,99042.48
2019-04-29T20:45:40.262Z,99041.47
2019-04-29T20:48:11.179Z,99041.92
2019-04-29T20:50:41.303Z,99044.30
2019-04-29T20:53:40.342Z,99045.16
2019-04-29T20:56:12.696Z,99049.30
2019-04-29T20:58:44.116Z,99041.92
2019-04-29T21:01:18.085Z,99045.00
2019-04-29T21:03:52.184Z,99046.29
2019-04-29T21:06:18.670Z,99048.17
2019-04-29T21:08:51.115Z,99047.30
2019-04-29T21:11:26.496Z,99048.17
2019-04-29T21:14:16.588Z,99048.24
2019-04-29T21:16:47.825Z,99042.75
2019-04-29T21:19:17.260Z,99044.75
2019-04-29T21:21:47.542Z,99048.74
2019-04-29T21:24:18.638Z,99045.39
2019-04-29T21:26:48.220Z,99044.94
2019-04-29T21:29:19.317Z,99045.58
2019-04-29T21:31:50.581Z,99044.97
2019-04-29T21:34:21.641Z,99043.66
2019-04-29T21:37:06.557Z,99049.06
2019-04-29T21:40:14.788Z,99052.84
2019-04-29T21:42:58.424Z,99054.52
2019-04-29T21:45:27.852Z,99051.83
2019-04-29T21:47:57.392Z,99051.40
2019-04-29T21:50:34.055Z,99058.01
2019-04-29T21:53:02.010Z,99061.19
2019-04-29T21:55:29.514Z,99060.98
2019-04-29T21:58:00.197Z,99055.17
2019-04-29T22:00:29.711Z,99052.61
2019-04-29T22:02:59.209Z,99054.27
2019-04-29T22:05:28.707Z,99064.21
2019-04-29T22:07:58.174Z,99067.58
2019-04-29T22:10:29.065Z,99058.49
2019-04-29T22:13:02.086Z,99054.13
2019-04-29T22:15:33.211Z,99051.16
2019-04-29T22:18:01.810Z,99042.91
2019-04-29T22:20:37.561Z,99038.45
2019-04-29T22:23:08.344Z,99041.02
2019-04-29T22:25:36.680Z,99045.73
2019-04-29T22:28:06.182Z,99047.34
2019-04-29T22:30:35.595Z,99047.34
2019-04-29T22:33:05.330Z,99043.86
2019-04-29T22:35:38.436Z,99036.57
2019-04-29T22:38:07.938Z,99033.34
2019-04-29T22:40:41.093Z,99033.82
2019-04-29T22:43:19.560Z,99028.77
2019-04-29T22:45:49.095Z,99025.11
2019-04-29T22:48:19.827Z,99028.72
2019-04-29T22:50:49.450Z,99025.55
2019-04-29T22:53:18.875Z,99013.06
2019-04-29T22:55:48.301Z,99012.02
2019-04-29T22:58:17.761Z,99007.90
2019-04-29T23:00:47.168Z,99003.76
2019-04-29T23:03:16.609Z,98998.79
2019-04-29T23:05:46.283Z,99002.84
2019-04-29T23:08:15.884Z,98998.66
2019-04-29T23:10:45.592Z,99003.59
2019-04-29T23:13:15.114Z,98997.88
